sensor_id;sensor_type;location;lat;lon;timestamp;P1;durP1;ratioP1;P2;durP2;ratioP2
42036;SDS011;75222;52.004;5.908;2024-02-28T00:00:37;13.77;;;6.65;;
42036;SDS011;75222;52.004;5.908;2024-02-28T00:03:02;11.13;;;5.90;;
42036;SDS011;75222;52.004;5.908;2024-02-28T00:05:28;11.25;;;5.38;;
42036;SDS011;75222;52.004;5.908;2024-02-28T00:07:54;8.27;;;4.63;;
42036;SDS011;75222;52.004;5.908;2024-02-28T00:10:19;11.32;;;5.38;;
42036;SDS011;75222;52.004;5.908;2024-02-28T00:12:45;8.27;;;4.55;;
42036;SDS011;75222;52.004;5.908;2024-02-28T00:15:11;17.38;;;8.05;;
42036;SDS011;75222;52.004;5.908;2024-02-28T00:17:39;13.32;;;6.45;;
42036;SDS011;75222;52.004;5.908;2024-02-28T00:20:06;9.88;;;5.28;;
42036;SDS011;75222;52.004;5.908;2024-02-28T00:22:33;13.13;;;6.30;;
42036;SDS011;75222;52.004;5.908;2024-02-28T00:24:58;10.38;;;5.72;;
42036;SDS011;75222;52.004;5.908;2024-02-28T00:27:26;14.77;;;7.20;;
42036;SDS011;75222;52.004;5.908;2024-02-28T00:29:51;24.40;;;9.05;;
42036;SDS011;75222;52.004;5.908;2024-02-28T00:32:17;14.82;;;7.88;;
42036;SDS011;75222;52.004;5.908;2024-02-28T00:34:43;26.42;;;7.32;;
42036;SDS011;75222;52.004;5.908;2024-02-28T00:37:09;14.43;;;6.53;;
42036;SDS011;75222;52.004;5.908;2024-02-28T00:39:34;12.32;;;6.13;;
42036;SDS011;75222;52.004;5.908;2024-02-28T00:42:00;8.82;;;5.28;;
42036;SDS011;75222;52.004;5.908;2024-02-28T00:44:25;11.30;;;6.10;;
42036;SDS011;75222;52.004;5.908;2024-02-28T00:46:51;10.15;;;5.18;;
42036;SDS011;75222;52.004;5.908;2024-02-28T00:49:16;9.80;;;5.25;;
42036;SDS011;75222;52.004;5.908;2024-02-28T00:51:42;11.23;;;5.70;;
42036;SDS011;75222;52.004;5.908;2024-02-28T00:54:07;17.55;;;8.80;;
42036;SDS011;75222;52.004;5.908;2024-02-28T00:56:33;15.98;;;8.45;;
42036;SDS011;75222;52.004;5.908;2024-02-28T00:58:59;16.33;;;8.40;;
42036;SDS011;75222;52.004;5.908;2024-02-28T01:01:24;17.60;;;7.82;;
42036;SDS011;75222;52.004;5.908;2024-02-28T01:03:50;15.43;;;7.55;;
42036;SDS011;75222;52.004;5.908;2024-02-28T01:06:16;14.55;;;7.70;;
42036;SDS011;75222;52.004;5.908;2024-02-28T01:08:41;13.13;;;6.63;;
42036;SDS011;75222;52.004;5.908;2024-02-28T01:11:07;11.43;;;6.15;;
42036;SDS011;75222;52.004;5.908;2024-02-28T01:13:33;10.07;;;4.95;;
42036;SDS011;75222;52.004;5.908;2024-02-28T01:15:58;9.65;;;5.30;;
42036;SDS011;75222;52.004;5.908;2024-02-28T01:18:25;11.95;;;5.90;;
42036;SDS011;75222;52.004;5.908;2024-02-28T01:20:50;17.45;;;7.93;;
42036;SDS011;75222;52.004;5.908;2024-02-28T01:23:19;16.02;;;7.82;;
42036;SDS011;75222;52.004;5.908;2024-02-28T01:25:45;19.42;;;9.73;;
42036;SDS011;75222;52.004;5.908;2024-02-28T01:28:11;22.27;;;10.32;;
42036;SDS011;75222;52.004;5.908;2024-02-28T01:30:37;24.20;;;11.48;;
42036;SDS011;75222;52.004;5.908;2024-02-28T01:33:02;14.45;;;7.78;;
42036;SDS011;75222;52.004;5.908;2024-02-28T01:35:28;20.60;;;9.32;;
42036;SDS011;75222;52.004;5.908;2024-02-28T01:37:54;14.27;;;7.28;;
42036;SDS011;75222;52.004;5.908;2024-02-28T01:40:19;14.63;;;6.50;;
42036;SDS011;75222;52.004;5.908;2024-02-28T01:42:46;12.05;;;5.40;;
42036;SDS011;75222;52.004;5.908;2024-02-28T01:45:13;10.63;;;5.40;;
42036;SDS011;75222;52.004;5.908;2024-02-28T01:47:39;10.38;;;4.82;;
42036;SDS011;75222;52.004;5.908;2024-02-28T01:50:07;9.05;;;4.45;;
42036;SDS011;75222;52.004;5.908;2024-02-28T01:52:34;9.27;;;3.92;;
42036;SDS011;75222;52.004;5.908;2024-02-28T01:55:00;8.70;;;4.38;;
42036;SDS011;75222;52.004;5.908;2024-02-28T01:57:27;10.13;;;4.45;;
42036;SDS011;75222;52.004;5.908;2024-02-28T01:59:53;9.63;;;4.80;;
42036;SDS011;75222;52.004;5.908;2024-02-28T02:02:20;8.77;;;4.40;;
42036;SDS011;75222;52.004;5.908;2024-02-28T02:04:45;6.68;;;3.90;;
42036;SDS011;75222;52.004;5.908;2024-02-28T02:07:11;9.05;;;4.45;;
42036;SDS011;75222;52.004;5.908;2024-02-28T02:09:36;7.53;;;4.05;;
42036;SDS011;75222;52.004;5.908;2024-02-28T02:12:02;9.30;;;4.60;;
42036;SDS011;75222;52.004;5.908;2024-02-28T02:14:28;9.98;;;4.57;;
42036;SDS011;75222;52.004;5.908;2024-02-28T02:16:53;9.88;;;5.50;;
42036;SDS011;75222;52.004;5.908;2024-02-28T02:19:19;11.57;;;4.53;;
42036;SDS011;75222;52.004;5.908;2024-02-28T02:21:49;9.93;;;4.90;;
42036;SDS011;75222;52.004;5.908;2024-02-28T02:26:43;12.25;;;6.38;;
42036;SDS011;75222;52.004;5.908;2024-02-28T02:29:11;10.20;;;5.38;;
42036;SDS011;75222;52.004;5.908;2024-02-28T02:31:37;8.05;;;4.55;;
42036;SDS011;75222;52.004;5.908;2024-02-28T02:34:02;8.35;;;4.00;;
42036;SDS011;75222;52.004;5.908;2024-02-28T02:36:28;9.95;;;5.03;;
42036;SDS011;75222;52.004;5.908;2024-02-28T02:38:53;9.55;;;4.93;;
42036;SDS011;75222;52.004;5.908;2024-02-28T02:41:19;6.80;;;4.07;;
42036;SDS011;75222;52.004;5.908;2024-02-28T02:43:45;12.80;;;6.50;;
42036;SDS011;75222;52.004;5.908;2024-02-28T02:46:10;9.55;;;5.68;;
42036;SDS011;75222;52.004;5.908;2024-02-28T02:48:36;10.50;;;5.93;;
42036;SDS011;75222;52.004;5.908;2024-02-28T02:51:01;9.40;;;5.20;;
42036;SDS011;75222;52.004;5.908;2024-02-28T02:53:27;12.00;;;6.85;;
42036;SDS011;75222;52.004;5.908;2024-02-28T02:55:52;9.98;;;5.72;;
42036;SDS011;75222;52.004;5.908;2024-02-28T02:58:19;9.57;;;5.60;;
42036;SDS011;75222;52.004;5.908;2024-02-28T03:00:44;11.52;;;5.57;;
42036;SDS011;75222;52.004;5.908;2024-02-28T03:03:10;8.02;;;4.65;;
42036;SDS011;75222;52.004;5.908;2024-02-28T03:05:35;10.80;;;3.70;;
42036;SDS011;75222;52.004;5.908;2024-02-28T03:08:01;6.00;;;3.50;;
42036;SDS011;75222;52.004;5.908;2024-02-28T03:10:27;9.10;;;4.22;;
42036;SDS011;75222;52.004;5.908;2024-02-28T03:12:53;10.63;;;5.13;;
42036;SDS011;75222;52.004;5.908;2024-02-28T03:15:19;10.98;;;5.22;;
42036;SDS011;75222;52.004;5.908;2024-02-28T03:17:44;8.02;;;4.53;;
42036;SDS011;75222;52.004;5.908;2024-02-28T03:20:10;7.15;;;3.80;;
42036;SDS011;75222;52.004;5.908;2024-02-28T03:22:38;7.20;;;4.10;;
42036;SDS011;75222;52.004;5.908;2024-02-28T03:25:04;8.23;;;3.47;;
42036;SDS011;75222;52.004;5.908;2024-02-28T03:27:29;5.63;;;3.40;;
42036;SDS011;75222;52.004;5.908;2024-02-28T03:29:55;4.68;;;2.70;;
42036;SDS011;75222;52.004;5.908;2024-02-28T03:32:21;5.50;;;2.97;;
42036;SDS011;75222;52.004;5.908;2024-02-28T03:34:47;7.97;;;3.65;;
42036;SDS011;75222;52.004;5.908;2024-02-28T03:37:13;10.55;;;6.15;;
42036;SDS011;75222;52.004;5.908;2024-02-28T03:39:38;15.68;;;6.80;;
42036;SDS011;75222;52.004;5.908;2024-02-28T03:42:04;13.77;;;6.32;;
42036;SDS011;75222;52.004;5.908;2024-02-28T03:44:30;10.80;;;5.50;;
42036;SDS011;75222;52.004;5.908;2024-02-28T03:46:55;8.60;;;4.65;;
42036;SDS011;75222;52.004;5.908;2024-02-28T03:49:21;9.38;;;5.50;;
42036;SDS011;75222;52.004;5.908;2024-02-28T03:51:46;15.05;;;6.75;;
42036;SDS011;75222;52.004;5.908;2024-02-28T03:54:12;14.98;;;7.60;;
42036;SDS011;75222;52.004;5.908;2024-02-28T03:56:37;16.50;;;7.40;;
42036;SDS011;75222;52.004;5.908;2024-02-28T03:59:03;12.20;;;6.50;;
42036;SDS011;75222;52.004;5.908;2024-02-28T04:01:29;12.00;;;6.32;;
42036;SDS011;75222;52.004;5.908;2024-02-28T04:03:55;12.52;;;5.93;;
42036;SDS011;75222;52.004;5.908;2024-02-28T04:06:20;8.65;;;4.93;;
42036;SDS011;75222;52.004;5.908;2024-02-28T04:08:46;7.30;;;4.15;;
42036;SDS011;75222;52.004;5.908;2024-02-28T04:11:11;6.80;;;4.32;;
42036;SDS011;75222;52.004;5.908;2024-02-28T04:13:37;6.00;;;3.90;;
42036;SDS011;75222;52.004;5.908;2024-02-28T04:16:02;8.48;;;4.95;;
42036;SDS011;75222;52.004;5.908;2024-02-28T04:18:28;8.18;;;4.70;;
42036;SDS011;75222;52.004;5.908;2024-02-28T04:20:55;8.20;;;4.43;;
42036;SDS011;75222;52.004;5.908;2024-02-28T04:23:20;13.55;;;6.28;;
42036;SDS011;75222;52.004;5.908;2024-02-28T04:25:46;12.90;;;6.00;;
42036;SDS011;75222;52.004;5.908;2024-02-28T04:28:11;10.07;;;5.25;;
42036;SDS011;75222;52.004;5.908;2024-02-28T04:30:37;7.10;;;4.15;;
42036;SDS011;75222;52.004;5.908;2024-02-28T04:33:03;10.05;;;5.35;;
42036;SDS011;75222;52.004;5.908;2024-02-28T04:35:28;11.57;;;6.25;;
42036;SDS011;75222;52.004;5.908;2024-02-28T04:37:54;18.35;;;9.75;;
42036;SDS011;75222;52.004;5.908;2024-02-28T04:40:20;17.27;;;8.48;;
42036;SDS011;75222;52.004;5.908;2024-02-28T04:42:45;13.43;;;7.68;;
42036;SDS011;75222;52.004;5.908;2024-02-28T04:45:11;16.73;;;7.05;;
42036;SDS011;75222;52.004;5.908;2024-02-28T04:47:37;17.00;;;7.55;;
42036;SDS011;75222;52.004;5.908;2024-02-28T04:50:03;14.73;;;7.22;;
42036;SDS011;75222;52.004;5.908;2024-02-28T04:52:30;14.75;;;7.07;;
42036;SDS011;75222;52.004;5.908;2024-02-28T04:54:56;10.15;;;5.47;;
42036;SDS011;75222;52.004;5.908;2024-02-28T04:57:21;10.68;;;5.90;;
42036;SDS011;75222;52.004;5.908;2024-02-28T04:59:47;14.15;;;7.95;;
42036;SDS011;75222;52.004;5.908;2024-02-28T05:02:13;16.00;;;8.10;;
42036;SDS011;75222;52.004;5.908;2024-02-28T05:04:38;14.93;;;8.27;;
42036;SDS011;75222;52.004;5.908;2024-02-28T05:07:04;14.07;;;8.13;;
42036;SDS011;75222;52.004;5.908;2024-02-28T05:09:32;21.00;;;9.70;;
42036;SDS011;75222;52.004;5.908;2024-02-28T05:11:58;15.65;;;9.15;;
42036;SDS011;75222;52.004;5.908;2024-02-28T05:14:23;11.38;;;6.53;;
42036;SDS011;75222;52.004;5.908;2024-02-28T05:16:49;14.35;;;8.45;;
42036;SDS011;75222;52.004;5.908;2024-02-28T05:19:15;14.43;;;8.00;;
42036;SDS011;75222;52.004;5.908;2024-02-28T05:21:44;13.15;;;7.85;;
42036;SDS011;75222;52.004;5.908;2024-02-28T05:24:10;16.08;;;7.88;;
42036;SDS011;75222;52.004;5.908;2024-02-28T05:26:36;14.00;;;7.22;;
42036;SDS011;75222;52.004;5.908;2024-02-28T05:29:04;9.35;;;5.53;;
42036;SDS011;75222;52.004;5.908;2024-02-28T05:31:31;14.10;;;6.88;;
42036;SDS011;75222;52.004;5.908;2024-02-28T05:33:57;10.30;;;6.25;;
42036;SDS011;75222;52.004;5.908;2024-02-28T05:36:24;9.02;;;5.70;;
42036;SDS011;75222;52.004;5.908;2024-02-28T05:38:51;7.82;;;4.70;;
42036;SDS011;75222;52.004;5.908;2024-02-28T05:41:18;11.20;;;4.00;;
42036;SDS011;75222;52.004;5.908;2024-02-28T05:43:43;16.73;;;8.70;;
42036;SDS011;75222;52.004;5.908;2024-02-28T05:46:09;14.23;;;7.75;;
42036;SDS011;75222;52.004;5.908;2024-02-28T05:48:35;10.90;;;6.53;;
42036;SDS011;75222;52.004;5.908;2024-02-28T05:51:01;13.25;;;6.50;;
42036;SDS011;75222;52.004;5.908;2024-02-28T05:53:27;12.25;;;7.35;;
42036;SDS011;75222;52.004;5.908;2024-02-28T05:55:57;13.25;;;7.10;;
42036;SDS011;75222;52.004;5.908;2024-02-28T05:58:23;14.70;;;8.40;;
42036;SDS011;75222;52.004;5.908;2024-02-28T06:00:50;11.00;;;7.32;;
42036;SDS011;75222;52.004;5.908;2024-02-28T06:03:16;12.80;;;7.30;;
42036;SDS011;75222;52.004;5.908;2024-02-28T06:05:41;10.55;;;5.80;;
42036;SDS011;75222;52.004;5.908;2024-02-28T06:08:07;9.77;;;5.82;;
42036;SDS011;75222;52.004;5.908;2024-02-28T06:10:32;10.73;;;6.38;;
42036;SDS011;75222;52.004;5.908;2024-02-28T06:12:58;11.02;;;6.63;;
42036;SDS011;75222;52.004;5.908;2024-02-28T06:15:24;13.25;;;7.80;;
42036;SDS011;75222;52.004;5.908;2024-02-28T06:17:49;15.45;;;8.65;;
42036;SDS011;75222;52.004;5.908;2024-02-28T06:20:15;15.80;;;9.10;;
42036;SDS011;75222;52.004;5.908;2024-02-28T06:22:40;15.95;;;8.13;;
42036;SDS011;75222;52.004;5.908;2024-02-28T06:25:06;12.18;;;7.15;;
42036;SDS011;75222;52.004;5.908;2024-02-28T06:27:38;9.65;;;5.13;;
42036;SDS011;75222;52.004;5.908;2024-02-28T06:30:04;7.13;;;4.10;;
42036;SDS011;75222;52.004;5.908;2024-02-28T06:32:31;7.90;;;4.93;;
42036;SDS011;75222;52.004;5.908;2024-02-28T06:34:57;8.35;;;4.75;;
42036;SDS011;75222;52.004;5.908;2024-02-28T06:37:23;6.07;;;3.97;;
42036;SDS011;75222;52.004;5.908;2024-02-28T06:39:48;9.15;;;5.63;;
42036;SDS011;75222;52.004;5.908;2024-02-28T06:42:14;9.77;;;5.57;;
42036;SDS011;75222;52.004;5.908;2024-02-28T06:44:39;12.35;;;7.03;;
42036;SDS011;75222;52.004;5.908;2024-02-28T06:47:05;9.60;;;5.97;;
42036;SDS011;75222;52.004;5.908;2024-02-28T06:49:30;12.18;;;7.00;;
42036;SDS011;75222;52.004;5.908;2024-02-28T06:51:56;9.95;;;6.10;;
42036;SDS011;75222;52.004;5.908;2024-02-28T06:54:24;11.43;;;6.50;;
42036;SDS011;75222;52.004;5.908;2024-02-28T06:56:49;10.07;;;6.20;;
42036;SDS011;75222;52.004;5.908;2024-02-28T06:59:15;10.45;;;6.80;;
42036;SDS011;75222;52.004;5.908;2024-02-28T07:01:41;11.40;;;6.38;;
42036;SDS011;75222;52.004;5.908;2024-02-28T07:04:06;8.88;;;4.85;;
42036;SDS011;75222;52.004;5.908;2024-02-28T07:06:32;12.13;;;7.30;;
42036;SDS011;75222;52.004;5.908;2024-02-28T07:08:57;12.77;;;6.82;;
42036;SDS011;75222;52.004;5.908;2024-02-28T07:11:23;12.07;;;7.22;;
42036;SDS011;75222;52.004;5.908;2024-02-28T07:13:48;12.80;;;7.70;;
42036;SDS011;75222;52.004;5.908;2024-02-28T07:16:14;12.48;;;7.13;;
42036;SDS011;75222;52.004;5.908;2024-02-28T07:18:40;17.98;;;9.85;;
42036;SDS011;75222;52.004;5.908;2024-02-28T07:21:06;15.02;;;8.48;;
42036;SDS011;75222;52.004;5.908;2024-02-28T07:23:32;11.82;;;7.13;;
42036;SDS011;75222;52.004;5.908;2024-02-28T07:25:57;14.35;;;8.30;;
42036;SDS011;75222;52.004;5.908;2024-02-28T07:28:23;11.55;;;7.53;;
42036;SDS011;75222;52.004;5.908;2024-02-28T07:30:48;15.07;;;8.80;;
42036;SDS011;75222;52.004;5.908;2024-02-28T07:33:14;21.30;;;11.25;;
42036;SDS011;75222;52.004;5.908;2024-02-28T07:35:49;18.40;;;10.73;;
42036;SDS011;75222;52.004;5.908;2024-02-28T07:38:17;16.15;;;9.30;;
42036;SDS011;75222;52.004;5.908;2024-02-28T07:40:45;14.27;;;8.30;;
42036;SDS011;75222;52.004;5.908;2024-02-28T07:43:11;13.32;;;7.47;;
42036;SDS011;75222;52.004;5.908;2024-02-28T07:45:36;14.85;;;9.50;;
42036;SDS011;75222;52.004;5.908;2024-02-28T07:48:02;19.10;;;11.52;;
42036;SDS011;75222;52.004;5.908;2024-02-28T07:50:27;20.73;;;11.77;;
42036;SDS011;75222;52.004;5.908;2024-02-28T07:52:53;17.02;;;10.23;;
42036;SDS011;75222;52.004;5.908;2024-02-28T07:55:20;16.08;;;10.15;;
42036;SDS011;75222;52.004;5.908;2024-02-28T07:57:47;18.52;;;11.23;;
42036;SDS011;75222;52.004;5.908;2024-02-28T08:00:16;17.38;;;9.90;;
42036;SDS011;75222;52.004;5.908;2024-02-28T08:02:44;16.27;;;9.05;;
42036;SDS011;75222;52.004;5.908;2024-02-28T08:05:09;17.23;;;9.80;;
42036;SDS011;75222;52.004;5.908;2024-02-28T08:07:35;14.35;;;8.18;;
42036;SDS011;75222;52.004;5.908;2024-02-28T08:10:01;19.67;;;11.80;;
42036;SDS011;75222;52.004;5.908;2024-02-28T08:12:27;16.45;;;9.75;;
42036;SDS011;75222;52.004;5.908;2024-02-28T08:14:52;15.02;;;8.50;;
42036;SDS011;75222;52.004;5.908;2024-02-28T08:17:18;23.10;;;12.98;;
42036;SDS011;75222;52.004;5.908;2024-02-28T08:19:43;23.70;;;13.75;;
42036;SDS011;75222;52.004;5.908;2024-02-28T08:22:09;24.70;;;14.13;;
42036;SDS011;75222;52.004;5.908;2024-02-28T08:24:35;26.52;;;14.50;;
42036;SDS011;75222;52.004;5.908;2024-02-28T08:27:02;30.17;;;16.65;;
42036;SDS011;75222;52.004;5.908;2024-02-28T08:29:27;22.08;;;12.88;;
42036;SDS011;75222;52.004;5.908;2024-02-28T08:31:53;27.95;;;15.45;;
42036;SDS011;75222;52.004;5.908;2024-02-28T08:34:19;23.85;;;12.48;;
42036;SDS011;75222;52.004;5.908;2024-02-28T08:36:44;22.15;;;12.60;;
42036;SDS011;75222;52.004;5.908;2024-02-28T08:39:10;26.42;;;14.02;;
42036;SDS011;75222;52.004;5.908;2024-02-28T08:41:36;27.08;;;14.70;;
42036;SDS011;75222;52.004;5.908;2024-02-28T08:44:01;28.23;;;15.07;;
42036;SDS011;75222;52.004;5.908;2024-02-28T08:46:27;31.23;;;16.70;;
42036;SDS011;75222;52.004;5.908;2024-02-28T08:48:53;27.00;;;13.95;;
42036;SDS011;75222;52.004;5.908;2024-02-28T08:51:18;24.40;;;12.50;;
42036;SDS011;75222;52.004;5.908;2024-02-28T08:53:44;30.13;;;14.50;;
42036;SDS011;75222;52.004;5.908;2024-02-28T08:56:09;22.73;;;11.90;;
42036;SDS011;75222;52.004;5.908;2024-02-28T08:58:35;22.80;;;12.65;;
42036;SDS011;75222;52.004;5.908;2024-02-28T09:01:02;24.60;;;12.88;;
42036;SDS011;75222;52.004;5.908;2024-02-28T09:03:29;40.38;;;21.80;;
42036;SDS011;75222;52.004;5.908;2024-02-28T09:05:54;36.13;;;18.42;;
42036;SDS011;75222;52.004;5.908;2024-02-28T09:08:20;28.77;;;15.02;;
42036;SDS011;75222;52.004;5.908;2024-02-28T09:10:45;29.95;;;16.50;;
42036;SDS011;75222;52.004;5.908;2024-02-28T09:13:12;34.03;;;16.95;;
42036;SDS011;75222;52.004;5.908;2024-02-28T09:15:38;30.98;;;16.45;;
42036;SDS011;75222;52.004;5.908;2024-02-28T09:18:03;26.77;;;14.25;;
42036;SDS011;75222;52.004;5.908;2024-02-28T09:20:29;29.30;;;16.65;;
42036;SDS011;75222;52.004;5.908;2024-02-28T09:22:55;28.20;;;14.85;;
42036;SDS011;75222;52.004;5.908;2024-02-28T09:25:21;27.45;;;14.38;;
42036;SDS011;75222;52.004;5.908;2024-02-28T09:27:46;25.85;;;13.25;;
42036;SDS011;75222;52.004;5.908;2024-02-28T09:30:12;22.10;;;11.95;;
42036;SDS011;75222;52.004;5.908;2024-02-28T09:32:38;32.33;;;16.13;;
42036;SDS011;75222;52.004;5.908;2024-02-28T09:35:04;31.45;;;17.52;;
42036;SDS011;75222;52.004;5.908;2024-02-28T09:37:30;29.88;;;16.20;;
42036;SDS011;75222;52.004;5.908;2024-02-28T09:39:56;20.20;;;10.93;;
42036;SDS011;75222;52.004;5.908;2024-02-28T09:42:22;26.40;;;13.02;;
42036;SDS011;75222;52.004;5.908;2024-02-28T09:44:48;23.45;;;12.55;;
42036;SDS011;75222;52.004;5.908;2024-02-28T09:47:14;19.77;;;11.38;;
42036;SDS011;75222;52.004;5.908;2024-02-28T09:49:40;25.85;;;14.65;;
42036;SDS011;75222;52.004;5.908;2024-02-28T09:52:07;31.65;;;17.25;;
42036;SDS011;75222;52.004;5.908;2024-02-28T09:54:33;31.88;;;15.68;;
42036;SDS011;75222;52.004;5.908;2024-02-28T09:56:59;27.92;;;14.70;;
42036;SDS011;75222;52.004;5.908;2024-02-28T09:59:25;28.88;;;15.57;;
42036;SDS011;75222;52.004;5.908;2024-02-28T10:01:55;24.10;;;13.15;;
42036;SDS011;75222;52.004;5.908;2024-02-28T10:04:23;24.25;;;14.32;;
42036;SDS011;75222;52.004;5.908;2024-02-28T10:06:50;29.52;;;15.95;;
42036;SDS011;75222;52.004;5.908;2024-02-28T10:09:16;24.25;;;12.98;;
42036;SDS011;75222;52.004;5.908;2024-02-28T10:11:42;23.23;;;11.98;;
42036;SDS011;75222;52.004;5.908;2024-02-28T10:16:43;31.33;;;15.15;;
42036;SDS011;75222;52.004;5.908;2024-02-28T10:19:09;23.83;;;13.15;;
42036;SDS011;75222;52.004;5.908;2024-02-28T10:21:34;25.85;;;14.23;;
42036;SDS011;75222;52.004;5.908;2024-02-28T10:24:00;29.80;;;15.90;;
42036;SDS011;75222;52.004;5.908;2024-02-28T10:26:26;27.33;;;13.23;;
42036;SDS011;75222;52.004;5.908;2024-02-28T10:28:52;21.38;;;12.00;;
42036;SDS011;75222;52.004;5.908;2024-02-28T10:31:17;30.52;;;15.10;;
42036;SDS011;75222;52.004;5.908;2024-02-28T10:33:45;18.27;;;10.48;;
42036;SDS011;75222;52.004;5.908;2024-02-28T10:36:11;23.15;;;13.18;;
42036;SDS011;75222;52.004;5.908;2024-02-28T10:38:37;22.50;;;13.18;;
42036;SDS011;75222;52.004;5.908;2024-02-28T10:41:02;30.58;;;16.30;;
42036;SDS011;75222;52.004;5.908;2024-02-28T10:43:28;30.15;;;17.25;;
42036;SDS011;75222;52.004;5.908;2024-02-28T10:45:58;28.77;;;15.20;;
42036;SDS011;75222;52.004;5.908;2024-02-28T10:48:26;22.13;;;12.77;;
42036;SDS011;75222;52.004;5.908;2024-02-28T10:50:52;27.02;;;15.10;;
42036;SDS011;75222;52.004;5.908;2024-02-28T10:53:22;29.70;;;16.35;;
42036;SDS011;75222;52.004;5.908;2024-02-28T10:55:57;27.92;;;15.52;;
42036;SDS011;75222;52.004;5.908;2024-02-28T10:58:29;24.20;;;14.45;;
42036;SDS011;75222;52.004;5.908;2024-02-28T11:01:07;23.73;;;12.98;;
42036;SDS011;75222;52.004;5.908;2024-02-28T11:03:33;25.75;;;14.32;;
42036;SDS011;75222;52.004;5.908;2024-02-28T11:06:00;29.90;;;15.60;;
42036;SDS011;75222;52.004;5.908;2024-02-28T11:08:26;28.92;;;15.55;;
42036;SDS011;75222;52.004;5.908;2024-02-28T11:10:57;26.25;;;15.15;;
42036;SDS011;75222;52.004;5.908;2024-02-28T11:13:24;35.88;;;19.42;;
42036;SDS011;75222;52.004;5.908;2024-02-28T11:15:51;26.17;;;14.50;;
42036;SDS011;75222;52.004;5.908;2024-02-28T11:18:18;22.52;;;13.45;;
42036;SDS011;75222;52.004;5.908;2024-02-28T11:20:43;34.33;;;18.75;;
42036;SDS011;75222;52.004;5.908;2024-02-28T11:23:12;22.92;;;12.88;;
42036;SDS011;75222;52.004;5.908;2024-02-28T11:25:39;16.63;;;9.70;;
42036;SDS011;75222;52.004;5.908;2024-02-28T11:28:08;15.57;;;8.95;;
42036;SDS011;75222;52.004;5.908;2024-02-28T11:30:33;21.90;;;12.52;;
42036;SDS011;75222;52.004;5.908;2024-02-28T11:32:59;25.45;;;14.52;;
42036;SDS011;75222;52.004;5.908;2024-02-28T11:35:26;34.70;;;19.60;;
42036;SDS011;75222;52.004;5.908;2024-02-28T11:37:53;26.17;;;14.88;;
42036;SDS011;75222;52.004;5.908;2024-02-28T11:40:22;25.45;;;14.18;;
42036;SDS011;75222;52.004;5.908;2024-02-28T11:42:50;26.27;;;15.25;;
42036;SDS011;75222;52.004;5.908;2024-02-28T11:45:16;29.83;;;17.67;;
42036;SDS011;75222;52.004;5.908;2024-02-28T11:47:41;24.10;;;14.88;;
42036;SDS011;75222;52.004;5.908;2024-02-28T11:50:07;29.17;;;16.00;;
42036;SDS011;75222;52.004;5.908;2024-02-28T11:52:35;28.20;;;15.38;;
42036;SDS011;75222;52.004;5.908;2024-02-28T11:55:02;22.65;;;13.20;;
42036;SDS011;75222;52.004;5.908;2024-02-28T11:57:28;20.27;;;12.68;;
42036;SDS011;75222;52.004;5.908;2024-02-28T11:59:55;18.02;;;10.73;;
42036;SDS011;75222;52.004;5.908;2024-02-28T12:02:22;15.32;;;9.35;;
42036;SDS011;75222;52.004;5.908;2024-02-28T12:04:50;17.55;;;10.63;;
42036;SDS011;75222;52.004;5.908;2024-02-28T12:07:16;19.90;;;11.73;;
42036;SDS011;75222;52.004;5.908;2024-02-28T12:09:41;19.20;;;10.57;;
42036;SDS011;75222;52.004;5.908;2024-02-28T12:12:09;17.33;;;10.25;;
42036;SDS011;75222;52.004;5.908;2024-02-28T12:14:37;15.15;;;8.75;;
42036;SDS011;75222;52.004;5.908;2024-02-28T12:17:04;17.48;;;10.18;;
42036;SDS011;75222;52.004;5.908;2024-02-28T12:19:29;12.90;;;7.60;;
42036;SDS011;75222;52.004;5.908;2024-02-28T12:21:55;12.90;;;7.50;;
42036;SDS011;75222;52.004;5.908;2024-02-28T12:24:21;16.52;;;10.07;;
42036;SDS011;75222;52.004;5.908;2024-02-28T12:26:47;16.38;;;9.13;;
42036;SDS011;75222;52.004;5.908;2024-02-28T12:29:12;17.60;;;10.25;;
42036;SDS011;75222;52.004;5.908;2024-02-28T12:31:38;18.15;;;10.52;;
42036;SDS011;75222;52.004;5.908;2024-02-28T12:34:04;16.38;;;9.65;;
42036;SDS011;75222;52.004;5.908;2024-02-28T12:36:29;16.67;;;9.80;;
42036;SDS011;75222;52.004;5.908;2024-02-28T12:38:56;14.13;;;8.77;;
42036;SDS011;75222;52.004;5.908;2024-02-28T12:41:22;15.35;;;9.05;;
42036;SDS011;75222;52.004;5.908;2024-02-28T12:43:48;17.85;;;10.13;;
42036;SDS011;75222;52.004;5.908;2024-02-28T12:46:15;20.17;;;11.73;;
42036;SDS011;75222;52.004;5.908;2024-02-28T12:48:40;13.70;;;8.18;;
42036;SDS011;75222;52.004;5.908;2024-02-28T12:51:06;21.17;;;12.23;;
42036;SDS011;75222;52.004;5.908;2024-02-28T12:53:33;20.85;;;11.50;;
42036;SDS011;75222;52.004;5.908;2024-02-28T12:55:59;12.50;;;8.05;;
42036;SDS011;75222;52.004;5.908;2024-02-28T12:58:25;15.25;;;9.35;;
42036;SDS011;75222;52.004;5.908;2024-02-28T13:00:50;19.17;;;11.55;;
42036;SDS011;75222;52.004;5.908;2024-02-28T13:03:16;20.80;;;12.38;;
42036;SDS011;75222;52.004;5.908;2024-02-28T13:05:42;13.73;;;9.05;;
42036;SDS011;75222;52.004;5.908;2024-02-28T13:08:08;25.30;;;15.45;;
42036;SDS011;75222;52.004;5.908;2024-02-28T13:10:34;22.17;;;12.57;;
42036;SDS011;75222;52.004;5.908;2024-02-28T13:13:01;27.27;;;16.35;;
42036;SDS011;75222;52.004;5.908;2024-02-28T13:15:28;24.48;;;14.40;;
42036;SDS011;75222;52.004;5.908;2024-02-28T13:17:53;27.60;;;15.15;;
42036;SDS011;75222;52.004;5.908;2024-02-28T13:20:19;23.20;;;12.95;;
42036;SDS011;75222;52.004;5.908;2024-02-28T13:22:44;20.42;;;11.32;;
42036;SDS011;75222;52.004;5.908;2024-02-28T13:25:13;18.88;;;11.07;;
42036;SDS011;75222;52.004;5.908;2024-02-28T13:27:40;14.15;;;9.13;;
42036;SDS011;75222;52.004;5.908;2024-02-28T13:30:06;17.63;;;10.88;;
42036;SDS011;75222;52.004;5.908;2024-02-28T13:32:32;14.15;;;9.18;;
42036;SDS011;75222;52.004;5.908;2024-02-28T13:34:58;26.25;;;15.30;;
42036;SDS011;75222;52.004;5.908;2024-02-28T13:37:24;20.10;;;10.93;;
42036;SDS011;75222;52.004;5.908;2024-02-28T13:39:50;13.93;;;8.25;;
42036;SDS011;75222;52.004;5.908;2024-02-28T13:42:17;12.57;;;7.45;;
42036;SDS011;75222;52.004;5.908;2024-02-28T13:44:45;20.55;;;12.38;;
42036;SDS011;75222;52.004;5.908;2024-02-28T13:47:11;17.05;;;9.95;;
42036;SDS011;75222;52.004;5.908;2024-02-28T13:49:38;14.52;;;8.85;;
42036;SDS011;75222;52.004;5.908;2024-02-28T13:52:04;15.63;;;9.45;;
42036;SDS011;75222;52.004;5.908;2024-02-28T13:54:30;14.48;;;8.48;;
42036;SDS011;75222;52.004;5.908;2024-02-28T13:56:56;13.48;;;7.65;;
42036;SDS011;75222;52.004;5.908;2024-02-28T13:59:22;12.45;;;7.45;;
42036;SDS011;75222;52.004;5.908;2024-02-28T14:01:48;11.70;;;7.80;;
42036;SDS011;75222;52.004;5.908;2024-02-28T14:04:14;19.70;;;12.43;;
42036;SDS011;75222;52.004;5.908;2024-02-28T14:06:40;21.63;;;13.18;;
42036;SDS011;75222;52.004;5.908;2024-02-28T14:09:05;24.75;;;13.93;;
42036;SDS011;75222;52.004;5.908;2024-02-28T14:11:31;17.80;;;11.13;;
42036;SDS011;75222;52.004;5.908;2024-02-28T14:13:57;19.08;;;11.27;;
42036;SDS011;75222;52.004;5.908;2024-02-28T14:16:23;16.50;;;9.63;;
42036;SDS011;75222;52.004;5.908;2024-02-28T14:18:49;14.07;;;8.43;;
42036;SDS011;75222;52.004;5.908;2024-02-28T14:21:14;9.73;;;6.22;;
42036;SDS011;75222;52.004;5.908;2024-02-28T14:23:40;10.02;;;6.85;;
42036;SDS011;75222;52.004;5.908;2024-02-28T14:26:06;16.02;;;8.95;;
42036;SDS011;75222;52.004;5.908;2024-02-28T14:28:32;11.18;;;7.35;;